sensor_id;sensor_type;location;lat;lon;timestamp;temperature;humidity
39103;DHT22;24847;48.218;16.414;2023-12-28T00:01:32;5.20;84.80
39103;DHT22;24847;48.218;16.414;2023-12-28T00:06:34;5.20;85.60
39103;DHT22;24847;48.218;16.414;2023-12-28T00:11:42;5.20;85.50
39103;DHT22;24847;48.218;16.414;2023-12-28T00:16:44;5.00;85.60
39103;DHT22;24847;48.218;16.414;2023-12-28T00:21:46;4.90;86.90
39103;DHT22;24847;48.218;16.414;2023-12-28T00:26:50;4.90;86.50
39103;DHT22;24847;48.218;16.414;2023-12-28T00:31:52;4.80;86.90
39103;DHT22;24847;48.218;16.414;2023-12-28T00:36:54;4.70;87.30
39103;DHT22;24847;48.218;16.414;2023-12-28T00:41:58;4.70;86.70
39103;DHT22;24847;48.218;16.414;2023-12-28T00:47:00;4.70;87.40
39103;DHT22;24847;48.218;16.414;2023-12-28T00:52:03;4.70;86.90
39103;DHT22;24847;48.218;16.414;2023-12-28T00:57:07;4.60;87.20
39103;DHT22;24847;48.218;16.414;2023-12-28T01:02:09;4.70;86.70
39103;DHT22;24847;48.218;16.414;2023-12-28T01:07:11;4.60;86.90
39103;DHT22;24847;48.218;16.414;2023-12-28T01:12:15;4.60;86.90
39103;DHT22;24847;48.218;16.414;2023-12-28T01:17:18;4.60;87.20
39103;DHT22;24847;48.218;16.414;2023-12-28T01:22:20;4.60;86.70
39103;DHT22;24847;48.218;16.414;2023-12-28T01:27:23;4.50;87.10
39103;DHT22;24847;48.218;16.414;2023-12-28T01:32:28;4.50;87.30
39103;DHT22;24847;48.218;16.414;2023-12-28T01:37:31;4.60;87.10
39103;DHT22;24847;48.218;16.414;2023-12-28T01:42:35;4.70;86.60
39103;DHT22;24847;48.218;16.414;2023-12-28T01:47:38;4.80;86.50
39103;DHT22;24847;48.218;16.414;2023-12-28T01:52:40;4.70;86.50
39103;DHT22;24847;48.218;16.414;2023-12-28T01:57:45;4.80;86.50
39103;DHT22;24847;48.218;16.414;2023-12-28T02:02:48;4.80;86.60
39103;DHT22;24847;48.218;16.414;2023-12-28T02:07:50;4.80;86.90
39103;DHT22;24847;48.218;16.414;2023-12-28T02:12:53;4.90;86.50
39103;DHT22;24847;48.218;16.414;2023-12-28T02:18:00;4.80;87.40
39103;DHT22;24847;48.218;16.414;2023-12-28T02:23:03;4.80;87.20
39103;DHT22;24847;48.218;16.414;2023-12-28T02:28:08;4.90;87.00
39103;DHT22;24847;48.218;16.414;2023-12-28T02:33:15;4.90;87.30
39103;DHT22;24847;48.218;16.414;2023-12-28T02:38:23;4.80;87.70
39103;DHT22;24847;48.218;16.414;2023-12-28T02:43:28;4.90;88.20
39103;DHT22;24847;48.218;16.414;2023-12-28T02:48:31;5.00;87.40
39103;DHT22;24847;48.218;16.414;2023-12-28T02:53:35;5.00;87.00
39103;DHT22;24847;48.218;16.414;2023-12-28T02:58:38;4.90;87.60
39103;DHT22;24847;48.218;16.414;2023-12-28T03:03:44;5.30;85.60
39103;DHT22;24847;48.218;16.414;2023-12-28T03:08:48;5.30;85.10
39103;DHT22;24847;48.218;16.414;2023-12-28T03:13:51;5.10;87.00
39103;DHT22;24847;48.218;16.414;2023-12-28T03:18:53;5.30;85.90
39103;DHT22;24847;48.218;16.414;2023-12-28T03:23:55;5.20;87.40
39103;DHT22;24847;48.218;16.414;2023-12-28T03:28:59;5.20;86.50
39103;DHT22;24847;48.218;16.414;2023-12-28T03:34:04;5.20;86.80
39103;DHT22;24847;48.218;16.414;2023-12-28T03:39:07;5.00;88.20
39103;DHT22;24847;48.218;16.414;2023-12-28T03:44:10;4.90;89.60
39103;DHT22;24847;48.218;16.414;2023-12-28T03:49:15;4.80;88.90
39103;DHT22;24847;48.218;16.414;2023-12-28T03:54:18;4.90;88.80
39103;DHT22;24847;48.218;16.414;2023-12-28T03:59:22;5.10;87.50
39103;DHT22;24847;48.218;16.414;2023-12-28T04:04:24;5.20;87.30
39103;DHT22;24847;48.218;16.414;2023-12-28T04:09:26;5.20;87.00
39103;DHT22;24847;48.218;16.414;2023-12-28T04:14:30;5.30;86.60
39103;DHT22;24847;48.218;16.414;2023-12-28T04:19:32;5.20;86.90
39103;DHT22;24847;48.218;16.414;2023-12-28T04:24:34;5.30;86.30
39103;DHT22;24847;48.218;16.414;2023-12-28T04:29:39;5.10;87.40
39103;DHT22;24847;48.218;16.414;2023-12-28T04:34:43;5.30;85.90
39103;DHT22;24847;48.218;16.414;2023-12-28T04:39:46;5.30;86.00
39103;DHT22;24847;48.218;16.414;2023-12-28T04:44:49;5.10;86.60
39103;DHT22;24847;48.218;16.414;2023-12-28T04:49:52;5.00;87.20
39103;DHT22;24847;48.218;16.414;2023-12-28T04:54:54;5.10;87.00
39103;DHT22;24847;48.218;16.414;2023-12-28T04:59:58;5.30;85.90
39103;DHT22;24847;48.218;16.414;2023-12-28T05:05:00;5.20;86.20
39103;DHT22;24847;48.218;16.414;2023-12-28T05:10:06;5.20;86.50
39103;DHT22;24847;48.218;16.414;2023-12-28T05:15:11;4.80;88.60
39103;DHT22;24847;48.218;16.414;2023-12-28T05:20:15;4.80;89.20
39103;DHT22;24847;48.218;16.414;2023-12-28T05:25:18;4.70;89.90
39103;DHT22;24847;48.218;16.414;2023-12-28T05:30:21;4.50;90.50
39103;DHT22;24847;48.218;16.414;2023-12-28T05:35:23;4.60;90.10
39103;DHT22;24847;48.218;16.414;2023-12-28T05:40:28;4.70;90.00
39103;DHT22;24847;48.218;16.414;2023-12-28T05:45:32;4.80;89.50
39103;DHT22;24847;48.218;16.414;2023-12-28T05:50:34;4.60;90.30
39103;DHT22;24847;48.218;16.414;2023-12-28T05:55:37;4.80;89.40
39103;DHT22;24847;48.218;16.414;2023-12-28T06:00:41;4.50;90.20
39103;DHT22;24847;48.218;16.414;2023-12-28T06:05:43;4.50;90.40
39103;DHT22;24847;48.218;16.414;2023-12-28T06:10:46;4.60;90.10
39103;DHT22;24847;48.218;16.414;2023-12-28T06:15:50;4.50;90.30
39103;DHT22;24847;48.218;16.414;2023-12-28T06:20:52;4.50;90.60
39103;DHT22;24847;48.218;16.414;2023-12-28T06:25:54;4.50;90.40
39103;DHT22;24847;48.218;16.414;2023-12-28T06:30:59;4.50;90.60
39103;DHT22;24847;48.218;16.414;2023-12-28T06:36:05;4.50;90.20
39103;DHT22;24847;48.218;16.414;2023-12-28T06:41:11;4.20;90.70
39103;DHT22;24847;48.218;16.414;2023-12-28T06:46:15;4.30;90.40
39103;DHT22;24847;48.218;16.414;2023-12-28T06:51:18;4.20;90.80
39103;DHT22;24847;48.218;16.414;2023-12-28T06:56:23;4.10;90.60
39103;DHT22;24847;48.218;16.414;2023-12-28T07:01:27;4.20;90.30
39103;DHT22;24847;48.218;16.414;2023-12-28T07:06:29;4.40;90.00
39103;DHT22;24847;48.218;16.414;2023-12-28T07:11:32;4.40;90.00
39103;DHT22;24847;48.218;16.414;2023-12-28T07:16:35;4.70;88.80
39103;DHT22;24847;48.218;16.414;2023-12-28T07:21:40;4.60;88.60
39103;DHT22;24847;48.218;16.414;2023-12-28T07:26:43;4.70;88.40
39103;DHT22;24847;48.218;16.414;2023-12-28T07:31:46;4.80;87.70
39103;DHT22;24847;48.218;16.414;2023-12-28T07:36:48;4.80;87.60
39103;DHT22;24847;48.218;16.414;2023-12-28T07:41:53;4.90;87.00
39103;DHT22;24847;48.218;16.414;2023-12-28T07:46:57;4.80;86.20
39103;DHT22;24847;48.218;16.414;2023-12-28T07:51:59;4.80;86.90
39103;DHT22;24847;48.218;16.414;2023-12-28T07:57:01;4.60;87.10
39103;DHT22;24847;48.218;16.414;2023-12-28T08:02:05;4.70;86.90
39103;DHT22;24847;48.218;16.414;2023-12-28T08:07:09;4.70;86.60
39103;DHT22;24847;48.218;16.414;2023-12-28T08:12:11;4.90;85.90
39103;DHT22;24847;48.218;16.414;2023-12-28T08:17:14;4.90;86.30
39103;DHT22;24847;48.218;16.414;2023-12-28T08:22:17;4.60;87.40
39103;DHT22;24847;48.218;16.414;2023-12-28T08:27:19;4.90;87.40
39103;DHT22;24847;48.218;16.414;2023-12-28T08:32:22;4.80;87.10
39103;DHT22;24847;48.218;16.414;2023-12-28T08:37:25;4.80;87.00
39103;DHT22;24847;48.218;16.414;2023-12-28T08:42:27;4.90;86.60
39103;DHT22;24847;48.218;16.414;2023-12-28T08:47:32;4.90;86.40
39103;DHT22;24847;48.218;16.414;2023-12-28T08:52:34;5.00;86.40
39103;DHT22;24847;48.218;16.414;2023-12-28T08:57:37;5.00;85.30
39103;DHT22;24847;48.218;16.414;2023-12-28T09:02:42;4.90;85.80
39103;DHT22;24847;48.218;16.414;2023-12-28T09:07:47;5.10;85.10
39103;DHT22;24847;48.218;16.414;2023-12-28T09:12:49;5.00;85.40
39103;DHT22;24847;48.218;16.414;2023-12-28T09:17:52;5.00;85.40
39103;DHT22;24847;48.218;16.414;2023-12-28T09:22:55;5.10;84.80
39103;DHT22;24847;48.218;16.414;2023-12-28T09:27:57;4.90;85.80
39103;DHT22;24847;48.218;16.414;2023-12-28T09:33:03;4.90;85.60
39103;DHT22;24847;48.218;16.414;2023-12-28T09:38:05;5.00;84.50
39103;DHT22;24847;48.218;16.414;2023-12-28T09:43:12;5.10;84.40
39103;DHT22;24847;48.218;16.414;2023-12-28T09:48:19;5.00;84.10
39103;DHT22;24847;48.218;16.414;2023-12-28T09:53:22;5.00;84.30
39103;DHT22;24847;48.218;16.414;2023-12-28T09:58:25;4.90;85.00
39103;DHT22;24847;48.218;16.414;2023-12-28T10:03:30;5.10;83.60
39103;DHT22;24847;48.218;16.414;2023-12-28T10:08:33;4.90;84.00
39103;DHT22;24847;48.218;16.414;2023-12-28T10:13:36;5.00;84.90
39103;DHT22;24847;48.218;16.414;2023-12-28T10:18:42;5.20;83.20
39103;DHT22;24847;48.218;16.414;2023-12-28T10:23:44;5.20;83.30
39103;DHT22;24847;48.218;16.414;2023-12-28T10:28:46;5.20;83.90
39103;DHT22;24847;48.218;16.414;2023-12-28T10:33:50;5.20;82.90
39103;DHT22;24847;48.218;16.414;2023-12-28T10:38:53;5.30;82.50
39103;DHT22;24847;48.218;16.414;2023-12-28T10:44:02;5.10;83.40
39103;DHT22;24847;48.218;16.414;2023-12-28T10:49:11;5.20;82.90
39103;DHT22;24847;48.218;16.414;2023-12-28T10:54:23;5.30;82.60
39103;DHT22;24847;48.218;16.414;2023-12-28T10:59:40;5.30;82.40
39103;DHT22;24847;48.218;16.414;2023-12-28T11:04:48;5.30;82.50
39103;DHT22;24847;48.218;16.414;2023-12-28T11:09:53;5.30;82.90
39103;DHT22;24847;48.218;16.414;2023-12-28T11:14:57;5.30;82.30
39103;DHT22;24847;48.218;16.414;2023-12-28T11:20:03;5.30;82.10
39103;DHT22;24847;48.218;16.414;2023-12-28T11:25:14;5.30;82.20
39103;DHT22;24847;48.218;16.414;2023-12-28T11:30:18;5.30;82.50
39103;DHT22;24847;48.218;16.414;2023-12-28T11:35:22;5.30;81.90
39103;DHT22;24847;48.218;16.414;2023-12-28T11:40:25;5.10;83.30
39103;DHT22;24847;48.218;16.414;2023-12-28T11:45:31;5.10;82.60
39103;DHT22;24847;48.218;16.414;2023-12-28T11:50:34;4.90;83.40
39103;DHT22;24847;48.218;16.414;2023-12-28T11:55:37;5.00;83.10
39103;DHT22;24847;48.218;16.414;2023-12-28T12:00:40;5.30;82.20
39103;DHT22;24847;48.218;16.414;2023-12-28T12:05:43;5.20;81.90
39103;DHT22;24847;48.218;16.414;2023-12-28T12:10:46;5.10;82.50
39103;DHT22;24847;48.218;16.414;2023-12-28T12:15:50;5.30;81.80
39103;DHT22;24847;48.218;16.414;2023-12-28T12:20:54;5.30;82.00
39103;DHT22;24847;48.218;16.414;2023-12-28T12:25:58;5.40;81.30
39103;DHT22;24847;48.218;16.414;2023-12-28T12:31:00;5.10;81.80
39103;DHT22;24847;48.218;16.414;2023-12-28T12:36:06;4.80;83.00
39103;DHT22;24847;48.218;16.414;2023-12-28T12:41:10;4.70;83.80
39103;DHT22;24847;48.218;16.414;2023-12-28T12:46:13;4.50;84.30
39103;DHT22;24847;48.218;16.414;2023-12-28T12:51:18;4.60;84.00
39103;DHT22;24847;48.218;16.414;2023-12-28T12:56:20;4.70;83.90
39103;DHT22;24847;48.218;16.414;2023-12-28T13:01:23;4.50;83.40
39103;DHT22;24847;48.218;16.414;2023-12-28T13:06:27;4.60;83.10
39103;DHT22;24847;48.218;16.414;2023-12-28T13:11:30;4.40;83.20
39103;DHT22;24847;48.218;16.414;2023-12-28T13:16:32;4.30;84.40
39103;DHT22;24847;48.218;16.414;2023-12-28T13:21:37;4.30;83.80
39103;DHT22;24847;48.218;16.414;2023-12-28T13:26:39;4.30;83.80
39103;DHT22;24847;48.218;16.414;2023-12-28T13:31:46;4.50;83.30
39103;DHT22;24847;48.218;16.414;2023-12-28T13:36:52;4.00;84.80
39103;DHT22;24847;48.218;16.414;2023-12-28T13:41:54;4.00;85.00
39103;DHT22;24847;48.218;16.414;2023-12-28T13:46:56;3.70;86.20
39103;DHT22;24847;48.218;16.414;2023-12-28T13:52:00;3.80;85.80
39103;DHT22;24847;48.218;16.414;2023-12-28T13:57:03;3.90;85.70
39103;DHT22;24847;48.218;16.414;2023-12-28T14:02:06;3.70;86.40
39103;DHT22;24847;48.218;16.414;2023-12-28T14:07:10;3.80;86.00
39103;DHT22;24847;48.218;16.414;2023-12-28T14:12:12;3.90;85.30
39103;DHT22;24847;48.218;16.414;2023-12-28T14:17:14;3.90;86.10
39103;DHT22;24847;48.218;16.414;2023-12-28T14:22:22;3.80;86.70
39103;DHT22;24847;48.218;16.414;2023-12-28T14:27:25;4.00;86.10
39103;DHT22;24847;48.218;16.414;2023-12-28T14:32:28;4.00;86.40
39103;DHT22;24847;48.218;16.414;2023-12-28T14:37:39;3.90;86.80
39103;DHT22;24847;48.218;16.414;2023-12-28T14:42:41;4.00;86.80
39103;DHT22;24847;48.218;16.414;2023-12-28T14:47:45;4.00;86.70
39103;DHT22;24847;48.218;16.414;2023-12-28T14:52:49;3.80;88.00
39103;DHT22;24847;48.218;16.414;2023-12-28T14:57:51;3.90;87.30
39103;DHT22;24847;48.218;16.414;2023-12-28T15:02:53;4.10;86.40
39103;DHT22;24847;48.218;16.414;2023-12-28T15:07:57;4.00;87.50
39103;DHT22;24847;48.218;16.414;2023-12-28T15:13:00;4.00;87.40
39103;DHT22;24847;48.218;16.414;2023-12-28T15:18:06;3.90;88.30
39103;DHT22;24847;48.218;16.414;2023-12-28T15:23:11;3.90;88.40
39103;DHT22;24847;48.218;16.414;2023-12-28T15:28:13;4.10;87.50
39103;DHT22;24847;48.218;16.414;2023-12-28T15:33:16;4.20;87.40
39103;DHT22;24847;48.218;16.414;2023-12-28T15:38:19;4.10;88.10
39103;DHT22;24847;48.218;16.414;2023-12-28T15:43:21;4.10;88.30
39103;DHT22;24847;48.218;16.414;2023-12-28T15:48:23;3.90;88.60
39103;DHT22;24847;48.218;16.414;2023-12-28T15:53:27;4.00;88.40
39103;DHT22;24847;48.218;16.414;2023-12-28T15:58:30;4.00;88.50
39103;DHT22;24847;48.218;16.414;2023-12-28T16:03:32;3.90;89.00
39103;DHT22;24847;48.218;16.414;2023-12-28T16:08:35;3.70;90.00
39103;DHT22;24847;48.218;16.414;2023-12-28T16:13:38;3.70;90.00
39103;DHT22;24847;48.218;16.414;2023-12-28T16:18:44;3.90;89.20
39103;DHT22;24847;48.218;16.414;2023-12-28T16:23:48;3.70;90.00
39103;DHT22;24847;48.218;16.414;2023-12-28T16:28:53;3.90;89.50
39103;DHT22;24847;48.218;16.414;2023-12-28T16:33:58;4.10;88.10
39103;DHT22;24847;48.218;16.414;2023-12-28T16:39:01;3.90;88.20
39103;DHT22;24847;48.218;16.414;2023-12-28T16:44:04;3.90;88.60
39103;DHT22;24847;48.218;16.414;2023-12-28T16:49:06;3.90;88.70
39103;DHT22;24847;48.218;16.414;2023-12-28T16:54:10;3.80;88.70
39103;DHT22;24847;48.218;16.414;2023-12-28T16:59:16;3.70;89.40
39103;DHT22;24847;48.218;16.414;2023-12-28T17:04:18;3.70;89.70
39103;DHT22;24847;48.218;16.414;2023-12-28T17:09:24;3.60;90.10
39103;DHT22;24847;48.218;16.414;2023-12-28T17:14:28;3.40;90.40
39103;DHT22;24847;48.218;16.414;2023-12-28T17:19:31;3.60;90.20
39103;DHT22;24847;48.218;16.414;2023-12-28T17:24:40;3.20;90.90
39103;DHT22;24847;48.218;16.414;2023-12-28T17:29:49;3.20;91.00
39103;DHT22;24847;48.218;16.414;2023-12-28T17:34:54;3.40;90.70
39103;DHT22;24847;48.218;16.414;2023-12-28T17:39:58;3.70;90.10
39103;DHT22;24847;48.218;16.414;2023-12-28T17:45:01;3.30;90.00
39103;DHT22;24847;48.218;16.414;2023-12-28T17:50:06;3.40;90.40
39103;DHT22;24847;48.218;16.414;2023-12-28T17:55:11;3.50;89.30
39103;DHT22;24847;48.218;16.414;2023-12-28T18:00:15;3.20;90.20
39103;DHT22;24847;48.218;16.414;2023-12-28T18:05:17;3.20;90.30
39103;DHT22;24847;48.218;16.414;2023-12-28T18:10:21;3.30;90.00
39103;DHT22;24847;48.218;16.414;2023-12-28T18:15:23;3.20;90.20
39103;DHT22;24847;48.218;16.414;2023-12-28T18:20:26;3.30;90.00
39103;DHT22;24847;48.218;16.414;2023-12-28T18:25:30;3.30;90.00
39103;DHT22;24847;48.218;16.414;2023-12-28T18:30:32;3.30;89.60
39103;DHT22;24847;48.218;16.414;2023-12-28T18:35:36;3.50;88.80
39103;DHT22;24847;48.218;16.414;2023-12-28T18:40:41;3.40;89.30
39103;DHT22;24847;48.218;16.414;2023-12-28T18:45:48;3.20;89.50
39103;DHT22;24847;48.218;16.414;2023-12-28T18:50:51;3.10;89.60
39103;DHT22;24847;48.218;16.414;2023-12-28T18:55:55;3.00;90.10
39103;DHT22;24847;48.218;16.414;2023-12-28T19:00:59;3.30;88.90
39103;DHT22;24847;48.218;16.414;2023-12-28T19:06:04;3.30;88.50
39103;DHT22;24847;48.218;16.414;2023-12-28T19:11:12;3.20;88.70
39103;DHT22;24847;48.218;16.414;2023-12-28T19:16:17;2.90;90.00
39103;DHT22;24847;48.218;16.414;2023-12-28T19:21:25;3.00;89.30
39103;DHT22;24847;48.218;16.414;2023-12-28T19:26:30;3.20;88.40
39103;DHT22;24847;48.218;16.414;2023-12-28T19:31:35;3.20;88.60
39103;DHT22;24847;48.218;16.414;2023-12-28T19:36:39;3.20;88.30
39103;DHT22;24847;48.218;16.414;2023-12-28T19:41:45;3.30;88.40
39103;DHT22;24847;48.218;16.414;2023-12-28T19:46:52;3.30;87.70
39103;DHT22;24847;48.218;16.414;2023-12-28T19:51:56;3.00;87.70
39103;DHT22;24847;48.218;16.414;2023-12-28T19:57:01;2.90;88.20
39103;DHT22;24847;48.218;16.414;2023-12-28T20:02:05;2.80;88.60
39103;DHT22;24847;48.218;16.414;2023-12-28T20:07:10;2.50;89.50
39103;DHT22;24847;48.218;16.414;2023-12-28T20:12:15;2.30;90.00
39103;DHT22;24847;48.218;16.414;2023-12-28T20:17:18;2.40;90.00
39103;DHT22;24847;48.218;16.414;2023-12-28T20:22:23;2.50;89.30
39103;DHT22;24847;48.218;16.414;2023-12-28T20:27:29;2.60;88.40
39103;DHT22;24847;48.218;16.414;2023-12-28T20:32:34;2.50;89.10
39103;DHT22;24847;48.218;16.414;2023-12-28T20:37:38;2.50;89.10
39103;DHT22;24847;48.218;16.414;2023-12-28T20:42:45;2.50;89.40
39103;DHT22;24847;48.218;16.414;2023-12-28T20:47:52;2.70;88.20
39103;DHT22;24847;48.218;16.414;2023-12-28T20:52:57;2.80;88.00
39103;DHT22;24847;48.218;16.414;2023-12-28T20:58:04;2.60;88.50
39103;DHT22;24847;48.218;16.414;2023-12-28T21:03:07;2.50;89.00
39103;DHT22;24847;48.218;16.414;2023-12-28T21:08:09;2.60;89.20
39103;DHT22;24847;48.218;16.414;2023-12-28T21:13:13;2.60;88.90
39103;DHT22;24847;48.218;16.414;2023-12-28T21:18:19;2.70;89.10
39103;DHT22;24847;48.218;16.414;2023-12-28T21:23:21;2.80;88.10
39103;DHT22;24847;48.218;16.414;2023-12-28T21:28:25;3.00;87.70
39103;DHT22;24847;48.218;16.414;2023-12-28T21:33:27;3.00;86.60
39103;DHT22;24847;48.218;16.414;2023-12-28T21:38:29;2.80;87.10
39103;DHT22;24847;48.218;16.414;2023-12-28T21:43:33;2.80;87.40
39103;DHT22;24847;48.218;16.414;2023-12-28T21:48:36;2.60;88.60
39103;DHT22;24847;48.218;16.414;2023-12-28T21:53:38;2.50;89.30
39103;DHT22;24847;48.218;16.414;2023-12-28T21:58:42;2.60;88.50
39103;DHT22;24847;48.218;16.414;2023-12-28T22:03:49;2.70;87.90
39103;DHT22;24847;48.218;16.414;2023-12-28T22:08:52;2.80;87.00
39103;DHT22;24847;48.218;16.414;2023-12-28T22:13:57;2.60;86.30
39103;DHT22;24847;48.218;16.414;2023-12-28T22:18:59;2.40;86.80
39103;DHT22;24847;48.218;16.414;2023-12-28T22:24:02;2.40;87.10
39103;DHT22;24847;48.218;16.414;2023-12-28T22:29:06;2.50;86.10
39103;DHT22;24847;48.218;16.414;2023-12-28T22:34:11;2.70;86.20
39103;DHT22;24847;48.218;16.414;2023-12-28T22:39:16;2.70;86.10
39103;DHT22;24847;48.218;16.414;2023-12-28T22:44:22;2.70;85.90
39103;DHT22;24847;48.218;16.414;2023-12-28T22:49:24;2.70;86.10
39103;DHT22;24847;48.218;16.414;2023-12-28T22:54:26;2.60;86.80
39103;DHT22;24847;48.218;16.414;2023-12-28T22:59:30;2.50;88.00
39103;DHT22;24847;48.218;16.414;2023-12-28T23:04:32;2.20;88.80
39103;DHT22;24847;48.218;16.414;2023-12-28T23:09:35;2.60;88.20
39103;DHT22;24847;48.218;16.414;2023-12-28T23:14:38;2.30;89.60
39103;DHT22;24847;48.218;16.414;2023-12-28T23:19:41;2.40;89.10
39103;DHT22;24847;48.218;16.414;2023-12-28T23:24:45;2.50;88.80
39103;DHT22;24847;48.218;16.414;2023-12-28T23:29:49;2.60;88.30
39103;DHT22;24847;48.218;16.414;2023-12-28T23:34:51;2.50;88.40
39103;DHT22;24847;48.218;16.414;2023-12-28T23:39:57;2.70;87.70
39103;DHT22;24847;48.218;16.414;2023-12-28T23:45:07;2.60;87.60
39103;DHT22;24847;48.218;16.414;2023-12-28T23:50:10;2.70;87.20
39103;DHT22;24847;48.218;16.414;2023-12-28T23:55:13;2.70;87.00
